createdAt,value
2018-09-19T06:00:19.968Z,16.87
2018-09-19T06:02:48.069Z,16.93
2018-09-19T06:05:16.231Z,14.17
2018-09-19T06:07:45.473Z,14.00
2018-09-19T06:10:13.608Z,15.43
2018-09-19T06:12:41.792Z,13.67
2018-09-19T06:15:09.832Z,13.63
2018-09-19T06:17:37.959Z,16.37
2018-09-19T06:20:06.115Z,16.00
2018-09-19T06:22:34.249Z,12.85
2018-09-19T06:25:02.354Z,12.95
2018-09-19T06:27:30.561Z,12.47
2018-09-19T06:29:58.801Z,16.70
2018-09-19T06:32:26.982Z,13.00
2018-09-19T06:34:55.154Z,14.43
2018-09-19T06:37:23.243Z,12.47
2018-09-19T06:39:51.354Z,13.28
2018-09-19T06:42:19.356Z,13.03
2018-09-19T06:44:47.443Z,12.20
2018-09-19T06:47:15.538Z,12.20
2018-09-19T06:49:43.644Z,12.33
2018-09-19T06:52:11.755Z,14.63
2018-09-19T06:54:39.863Z,13.53
2018-09-19T06:57:07.968Z,12.82
2018-09-19T06:59:36.104Z,15.45
2018-09-19T07:02:04.160Z,19.23
2018-09-19T07:04:32.195Z,13.05
2018-09-19T07:07:00.344Z,13.60
2018-09-19T07:09:28.415Z,13.70
2018-09-19T07:11:56.535Z,14.03
2018-09-19T07:14:25.396Z,11.40
2018-09-19T07:16:53.460Z,15.20
2018-09-19T07:19:21.552Z,13.53
2018-09-19T07:21:49.722Z,14.90
2018-09-19T07:24:17.782Z,14.93
2018-09-19T07:26:45.839Z,14.33
2018-09-19T07:29:13.885Z,17.10
2018-09-19T07:31:41.956Z,43.78
2018-09-19T07:34:10.007Z,18.70
2018-09-19T07:36:38.076Z,18.02
2018-09-19T07:39:08.178Z,16.93
2018-09-19T07:41:36.227Z,17.10
2018-09-19T07:44:04.305Z,15.45
2018-09-19T07:46:32.407Z,20.43
2018-09-19T07:49:00.502Z,18.95
2018-09-19T07:51:28.662Z,18.95
2018-09-19T07:53:56.726Z,15.53
2018-09-19T07:56:24.797Z,21.73
2018-09-19T07:58:53.064Z,18.70
2018-09-19T08:01:21.216Z,18.75
2018-09-19T08:03:49.236Z,20.25
2018-09-19T08:06:17.317Z,21.35
2018-09-19T08:08:45.388Z,18.20
2018-09-19T08:11:13.455Z,16.82
2018-09-19T08:13:41.604Z,18.75
2018-09-19T08:16:09.678Z,16.27
2018-09-19T08:18:37.734Z,19.12
2018-09-19T08:21:05.842Z,15.38
2018-09-19T08:23:33.893Z,14.85
2018-09-19T08:26:01.949Z,15.08
2018-09-19T08:28:30.023Z,19.85
2018-09-19T08:30:58.083Z,17.15
2018-09-19T08:33:26.134Z,14.55
2018-09-19T08:35:54.190Z,18.10
2018-09-19T08:38:22.291Z,16.95
2018-09-19T08:40:50.386Z,21.68
2018-09-19T08:43:18.445Z,15.20
2018-09-19T08:45:46.521Z,19.07
2018-09-19T08:48:14.564Z,18.77
2018-09-19T08:50:42.646Z,17.90
2018-09-19T08:53:12.681Z,16.37
2018-09-19T08:55:40.807Z,19.35
2018-09-19T08:58:09.190Z,16.07
2018-09-19T09:00:37.275Z,14.50
2018-09-19T09:03:05.723Z,16.23
2018-09-19T09:05:34.061Z,14.07
2018-09-19T09:08:02.054Z,16.48
2018-09-19T09:10:30.104Z,16.70
2018-09-19T09:12:58.183Z,17.50
2018-09-19T09:15:26.261Z,14.65
2018-09-19T09:17:55.274Z,17.48
2018-09-19T09:20:23.826Z,17.87
2018-09-19T09:22:52.035Z,13.38
2018-09-19T09:25:20.285Z,13.15
2018-09-19T09:27:48.450Z,13.83
2018-09-19T09:30:16.764Z,15.38
2018-09-19T09:32:44.999Z,14.00
2018-09-19T09:35:13.212Z,13.25
2018-09-19T09:37:41.387Z,15.28
2018-09-19T09:40:09.528Z,16.00
2018-09-19T09:42:37.704Z,13.60
2018-09-19T09:45:05.892Z,14.93
2018-09-19T09:47:34.135Z,12.10
2018-09-19T09:50:02.400Z,14.30
2018-09-19T09:52:30.599Z,13.20
2018-09-19T09:54:58.805Z,12.70
2018-09-19T09:57:27.048Z,14.47
2018-09-19T09:59:55.312Z,14.87
2018-09-19T10:02:23.435Z,15.43
2018-09-19T10:04:51.700Z,12.37
2018-09-19T10:07:19.866Z,14.68
2018-09-19T10:09:48.012Z,15.53
2018-09-19T10:12:16.272Z,15.65
2018-09-19T10:14:44.541Z,15.03
2018-09-19T10:17:12.688Z,16.50
2018-09-19T10:19:40.950Z,18.77
2018-09-19T10:22:09.187Z,14.70
2018-09-19T10:24:37.395Z,11.90
2018-09-19T10:27:05.678Z,15.83
2018-09-19T10:29:33.911Z,15.08
2018-09-19T10:32:02.177Z,17.73
2018-09-19T10:34:30.418Z,18.40
2018-09-19T10:36:58.606Z,17.30
2018-09-19T10:39:26.838Z,13.60
2018-09-19T10:41:54.976Z,16.23
2018-09-19T10:44:23.180Z,25.88
2018-09-19T10:46:51.313Z,19.37
2018-09-19T10:49:19.463Z,14.23
2018-09-19T10:51:47.617Z,16.55
2018-09-19T10:54:15.743Z,12.58
2018-09-19T10:56:43.903Z,14.50
2018-09-19T10:59:12.202Z,13.35
2018-09-19T11:01:40.331Z,10.88
2018-09-19T11:04:08.549Z,14.38
2018-09-19T11:06:36.708Z,11.75
2018-09-19T11:11:46.552Z,21.60
2018-09-19T11:14:14.671Z,13.55
2018-09-19T11:16:42.775Z,13.93
2018-09-19T11:19:10.863Z,14.20
2018-09-19T11:21:38.936Z,11.18
2018-09-19T11:24:07.837Z,9.88
2018-09-19T11:26:35.919Z,13.55
2018-09-19T11:29:04.127Z,15.18
2018-09-19T11:31:32.297Z,11.97
2018-09-19T11:34:00.428Z,10.20
2018-09-19T11:36:28.538Z,10.80
2018-09-19T11:38:56.619Z,12.93
2018-09-19T11:41:24.699Z,10.98
2018-09-19T11:43:52.810Z,18.95
2018-09-19T11:46:20.879Z,13.70
2018-09-19T11:48:48.973Z,14.98
2018-09-19T11:51:17.094Z,9.95
2018-09-19T11:53:45.274Z,10.15
2018-09-19T11:56:13.385Z,12.78
2018-09-19T11:58:41.504Z,12.53
2018-09-19T12:01:09.579Z,12.65
2018-09-19T12:03:37.659Z,16.87
2018-09-19T12:06:05.763Z,13.70
2018-09-19T12:08:33.867Z,8.68
2018-09-19T12:11:02.242Z,15.40
2018-09-19T12:13:30.427Z,13.08
2018-09-19T12:15:58.545Z,10.32
2018-09-19T12:18:26.682Z,12.98
2018-09-19T12:20:54.771Z,11.75
2018-09-19T12:23:22.893Z,17.17
2018-09-19T12:25:51.044Z,11.63
2018-09-19T12:28:19.224Z,17.48
2018-09-19T12:30:47.352Z,12.50
2018-09-19T12:33:15.465Z,11.90
2018-09-19T12:35:43.590Z,10.50
2018-09-19T12:38:11.671Z,11.15
2018-09-19T12:40:39.800Z,14.00
2018-09-19T12:43:07.910Z,13.85
2018-09-19T12:45:35.987Z,12.23
2018-09-19T12:48:04.141Z,13.62
2018-09-19T12:50:32.232Z,11.00
2018-09-19T12:53:00.296Z,10.00
2018-09-19T12:55:28.365Z,14.90
2018-09-19T12:57:56.501Z,15.10
2018-09-19T13:00:24.631Z,12.23
2018-09-19T13:02:52.758Z,12.58
2018-09-19T13:05:20.861Z,13.50
2018-09-19T13:07:48.964Z,17.15
2018-09-19T13:10:17.116Z,12.05
2018-09-19T13:12:45.191Z,11.75
2018-09-19T13:15:13.302Z,11.15
2018-09-19T13:17:41.386Z,11.20
2018-09-19T13:20:09.535Z,10.68
2018-09-19T13:22:37.692Z,11.50
2018-09-19T13:25:05.791Z,15.93
2018-09-19T13:27:33.992Z,11.97
2018-09-19T13:30:02.097Z,12.13
2018-09-19T13:32:30.174Z,16.87
2018-09-19T13:34:58.279Z,13.38
2018-09-19T13:37:26.445Z,9.85
2018-09-19T13:39:54.557Z,12.60
2018-09-19T13:42:22.758Z,12.13
2018-09-19T13:44:50.839Z,12.10
2018-09-19T13:47:18.919Z,13.05
2018-09-19T13:49:49.746Z,17.65
2018-09-19T13:52:17.844Z,16.75
2018-09-19T13:54:45.918Z,17.15
2018-09-19T13:57:14.027Z,13.85
2018-09-19T13:59:42.117Z,17.20
2018-09-19T14:02:10.234Z,17.02
2018-09-19T14:04:38.441Z,15.38
2018-09-19T14:07:06.878Z,13.20
2018-09-19T14:09:34.972Z,16.50
2018-09-19T14:12:03.045Z,15.68
2018-09-19T14:14:31.160Z,16.00
2018-09-19T14:16:59.409Z,20.43
2018-09-19T14:19:27.555Z,13.58
2018-09-19T14:21:55.665Z,14.18
2018-09-19T14:24:23.799Z,17.17
2018-09-19T14:26:51.946Z,13.60
2018-09-19T14:29:20.162Z,15.25
2018-09-19T14:31:48.298Z,11.48
2018-09-19T14:34:16.431Z,14.95
2018-09-19T14:36:44.615Z,16.82
2018-09-19T14:39:12.776Z,17.12
2018-09-19T14:41:40.891Z,15.68
2018-09-19T14:44:09.073Z,17.62
2018-09-19T14:46:37.160Z,21.07
2018-09-19T14:49:05.935Z,20.77
2018-09-19T14:51:34.077Z,14.05
2018-09-19T14:54:02.189Z,17.90
2018-09-19T14:56:30.255Z,17.98
2018-09-19T14:58:58.330Z,19.17
2018-09-19T15:01:26.483Z,18.25
2018-09-19T15:03:54.586Z,18.85
2018-09-19T15:06:22.710Z,16.82
2018-09-19T15:08:50.795Z,12.65
2018-09-19T15:11:18.892Z,18.67
2018-09-19T15:13:46.988Z,16.90
2018-09-19T15:16:15.100Z,15.83
2018-09-19T15:18:43.193Z,11.20
2018-09-19T15:21:11.309Z,13.93
2018-09-19T15:23:39.399Z,11.95
2018-09-19T15:26:07.700Z,12.45
2018-09-19T15:28:36.071Z,12.73
2018-09-19T15:31:17.832Z,13.98
2018-09-19T15:33:45.915Z,12.98
2018-09-19T15:36:13.990Z,12.58
2018-09-19T15:38:42.170Z,8.75
2018-09-19T15:41:10.281Z,7.33
2018-09-19T15:43:38.772Z,8.35
2018-09-19T15:46:06.934Z,10.15
2018-09-19T15:48:35.158Z,12.68
2018-09-19T15:51:03.202Z,9.98
2018-09-19T15:53:32.274Z,8.25
2018-09-19T15:56:01.394Z,8.90
2018-09-19T15:58:29.548Z,7.65
2018-09-19T16:00:57.632Z,8.58
2018-09-19T16:03:26.009Z,8.38
2018-09-19T16:05:54.278Z,13.30
2018-09-19T16:08:22.395Z,9.25
2018-09-19T16:10:50.605Z,10.35
2018-09-19T16:13:18.716Z,8.73
2018-09-19T16:15:46.819Z,8.10
2018-09-19T16:18:14.931Z,6.42
2018-09-19T16:20:43.306Z,8.13
2018-09-19T16:23:11.377Z,9.93
2018-09-19T16:25:39.505Z,8.58
2018-09-19T16:28:07.614Z,6.35
2018-09-19T16:30:35.980Z,6.92
2018-09-19T16:33:04.100Z,5.78
2018-09-19T16:35:32.298Z,10.32
2018-09-19T16:38:00.458Z,7.55
2018-09-19T16:40:28.691Z,8.75
2018-09-19T16:42:57.089Z,11.85
2018-09-19T16:45:25.310Z,8.23
2018-09-19T16:47:53.424Z,11.28
2018-09-19T16:50:21.551Z,9.28
2018-09-19T16:52:49.767Z,9.13
2018-09-19T16:55:17.934Z,7.80
2018-09-19T16:57:46.084Z,11.05
2018-09-19T17:00:15.171Z,6.03
2018-09-19T17:02:43.583Z,8.78
2018-09-19T17:05:12.022Z,10.85
2018-09-19T17:07:40.171Z,6.97
2018-09-19T17:10:08.318Z,15.53
2018-09-19T17:12:36.712Z,14.13
2018-09-19T17:15:04.936Z,10.23
2018-09-19T17:17:33.099Z,6.00
2018-09-19T17:20:01.434Z,6.95
2018-09-19T17:22:29.565Z,6.30
2018-09-19T17:24:57.697Z,6.87
2018-09-19T17:27:25.962Z,6.45
2018-09-19T17:29:54.126Z,6.33
2018-09-19T17:32:22.258Z,8.45
2018-09-19T17:34:50.525Z,8.95
2018-09-19T17:37:18.784Z,7.72
2018-09-19T17:39:47.042Z,11.85
2018-09-19T17:42:15.175Z,12.88
2018-09-19T17:44:43.273Z,14.70
2018-09-19T17:47:11.520Z,11.08
2018-09-19T17:49:39.897Z,13.60
2018-09-19T17:52:08.052Z,10.72
2018-09-19T17:54:36.212Z,9.28
2018-09-19T17:57:04.441Z,10.10
2018-09-19T17:59:32.624Z,8.60
2018-09-19T18:02:01.001Z,7.90
2018-09-19T18:04:29.240Z,11.22
2018-09-19T18:06:57.536Z,14.17
2018-09-19T18:09:25.677Z,9.13
2018-09-19T18:11:53.861Z,11.63
2018-09-19T18:14:21.956Z,10.77
2018-09-19T18:16:50.280Z,11.07
2018-09-19T18:19:18.459Z,9.03
2018-09-19T18:21:46.663Z,14.27
2018-09-19T18:24:14.902Z,9.40
2018-09-19T18:26:43.064Z,9.47
2018-09-19T18:29:11.237Z,7.00
2018-09-19T18:31:39.418Z,10.43
2018-09-19T18:34:07.627Z,9.07
2018-09-19T18:36:35.726Z,9.47
2018-09-19T18:39:05.335Z,9.03
2018-09-19T18:41:33.498Z,12.87
2018-09-19T18:44:01.694Z,11.40
2018-09-19T18:46:29.862Z,13.83
2018-09-19T18:48:57.999Z,12.77
2018-09-19T18:51:26.093Z,7.80
2018-09-19T18:53:54.262Z,14.50
2018-09-19T18:56:22.380Z,11.30
2018-09-19T18:58:50.662Z,10.10
2018-09-19T19:01:18.834Z,10.73
2018-09-19T19:03:47.018Z,11.43
2018-09-19T19:06:15.207Z,9.30
2018-09-19T19:08:43.306Z,9.60
2018-09-19T19:11:11.510Z,10.03
2018-09-19T19:13:39.689Z,18.23
2018-09-19T19:16:07.903Z,12.73
2018-09-19T19:18:36.003Z,15.73
2018-09-19T19:21:04.145Z,20.50
2018-09-19T19:23:32.221Z,12.67
2018-09-19T19:26:00.411Z,17.43
2018-09-19T19:28:28.529Z,13.93
2018-09-19T19:30:56.655Z,15.93
2018-09-19T19:33:24.869Z,15.17
2018-09-19T19:35:53.052Z,13.07
2018-09-19T19:38:21.231Z,9.13
2018-09-19T19:40:49.429Z,12.33
2018-09-19T19:43:17.587Z,15.27
2018-09-19T19:45:45.714Z,16.73
2018-09-19T19:48:13.835Z,18.07
2018-09-19T19:50:41.984Z,12.37
2018-09-19T19:53:10.117Z,15.00
2018-09-19T19:55:38.211Z,12.40
2018-09-19T19:58:06.435Z,12.93
2018-09-19T20:00:34.545Z,13.63
2018-09-19T20:03:02.654Z,15.60
2018-09-19T20:05:30.746Z,12.97
2018-09-19T20:07:58.887Z,12.67
2018-09-19T20:10:26.998Z,11.57
2018-09-19T20:12:55.175Z,9.67
2018-09-19T20:15:23.295Z,10.37
2018-09-19T20:17:51.549Z,10.53
2018-09-19T20:20:19.688Z,13.23
2018-09-19T20:22:47.770Z,16.10
2018-09-19T20:25:15.896Z,11.47
2018-09-19T20:27:44.000Z,16.50
2018-09-19T20:30:12.091Z,14.80
2018-09-19T20:32:40.352Z,19.27
2018-09-19T20:35:08.462Z,14.13
2018-09-19T20:37:38.156Z,12.93
2018-09-19T20:40:06.482Z,11.47
2018-09-19T20:42:34.655Z,17.60
2018-09-19T20:45:02.763Z,14.97
2018-09-19T20:47:30.866Z,16.77
2018-09-19T20:49:59.004Z,13.27
2018-09-19T20:52:27.137Z,13.57
2018-09-19T20:54:55.278Z,10.00
2018-09-19T20:57:23.415Z,9.57
2018-09-19T20:59:51.516Z,12.87
2018-09-19T21:02:19.813Z,12.50
2018-09-19T21:04:47.939Z,11.70
2018-09-19T21:07:16.010Z,14.73
2018-09-19T21:09:44.082Z,20.03
2018-09-19T21:12:12.220Z,10.10
2018-09-19T21:14:40.324Z,11.43
2018-09-19T21:17:08.478Z,16.97
2018-09-19T21:19:36.570Z,12.10
2018-09-19T21:22:04.751Z,11.00
2018-09-19T21:24:32.818Z,11.50
2018-09-19T21:27:00.994Z,9.30
2018-09-19T21:29:29.071Z,14.10
2018-09-19T21:31:57.217Z,12.77
2018-09-19T21:34:25.422Z,8.63
2018-09-19T21:36:53.561Z,13.07
2018-09-19T21:42:14.394Z,15.20
2018-09-19T21:44:42.498Z,18.83
2018-09-19T21:47:10.598Z,15.80
2018-09-19T21:49:38.664Z,35.00
2018-09-19T21:52:06.743Z,28.30
2018-09-19T21:54:34.831Z,34.43
2018-09-19T21:57:02.918Z,37.53
2018-09-19T21:59:31.015Z,33.07
2018-09-19T22:02:00.293Z,34.87
2018-09-19T22:04:29.023Z,25.30
2018-09-19T22:06:57.178Z,40.63
2018-09-19T22:09:25.460Z,23.50
2018-09-19T22:11:53.632Z,20.47
2018-09-19T22:14:21.768Z,28.17
2018-09-19T22:16:49.884Z,21.77
2018-09-19T22:19:17.971Z,25.80
2018-09-19T22:21:46.065Z,17.87
2018-09-19T22:24:14.137Z,26.83
2018-09-19T22:26:42.238Z,16.37
2018-09-19T22:29:10.336Z,14.50
2018-09-19T22:31:38.413Z,18.00
2018-09-19T22:34:06.523Z,17.67
2018-09-19T22:36:34.623Z,21.33
2018-09-19T22:39:03.257Z,20.07
2018-09-19T22:41:31.364Z,14.40
2018-09-19T22:43:59.563Z,23.67
2018-09-19T22:46:27.788Z,18.57
2018-09-19T22:48:55.868Z,13.00
2018-09-19T22:51:23.956Z,14.17
2018-09-19T22:53:52.023Z,14.13
2018-09-19T22:56:20.145Z,14.70
2018-09-19T22:58:48.303Z,17.57
2018-09-19T23:01:16.407Z,13.00
2018-09-19T23:03:44.491Z,18.73
2018-09-19T23:06:12.553Z,11.43
2018-09-19T23:08:40.667Z,12.30
2018-09-19T23:11:08.745Z,19.07
2018-09-19T23:13:36.853Z,16.30
2018-09-19T23:16:05.634Z,12.93
2018-09-19T23:18:33.743Z,19.43
2018-09-19T23:21:01.809Z,14.43
2018-09-19T23:23:29.934Z,16.03
2018-09-19T23:25:58.041Z,19.00
2018-09-19T23:28:26.266Z,16.03
2018-09-19T23:30:54.339Z,17.70
2018-09-19T23:33:22.414Z,19.27
2018-09-19T23:35:50.535Z,17.40
2018-09-19T23:38:18.673Z,17.07
2018-09-19T23:40:46.819Z,22.43
2018-09-19T23:43:14.953Z,19.17
2018-09-19T23:45:43.051Z,21.33
2018-09-19T23:48:11.135Z,18.37
2018-09-19T23:50:39.242Z,15.37
2018-09-19T23:53:07.387Z,16.33
2018-09-19T23:55:35.471Z,16.10
2018-09-19T23:58:03.591Z,17.90
